createdAt,value
2019-03-02T00:03:49.485Z,100532.09
2019-03-02T00:06:37.105Z,100528.20
2019-03-02T00:09:45.489Z,100528.58
2019-03-02T00:12:14.012Z,100529.12
2019-03-02T00:14:42.451Z,100526.39
2019-03-02T00:17:10.907Z,100525.98
2019-03-02T00:19:41.952Z,100522.39
2019-03-02T00:22:09.488Z,100523.27
2019-03-02T00:24:38.037Z,100521.55
2019-03-02T00:27:25.805Z,100515.83
2019-03-02T00:29:54.373Z,100515.36
2019-03-02T00:32:22.801Z,100522.08
2019-03-02T00:34:51.325Z,100511.86
2019-03-02T00:39:54.621Z,100524.56
2019-03-02T00:42:23.645Z,100530.84
2019-03-02T00:44:52.435Z,100524.08
2019-03-02T00:47:20.865Z,100526.20
2019-03-02T00:49:49.700Z,100523.55
2019-03-02T00:52:37.743Z,100527.28
2019-03-02T00:55:46.201Z,100531.87
2019-03-02T00:58:14.732Z,100525.41
2019-03-02T01:00:43.233Z,100522.38
2019-03-02T01:03:12.048Z,100521.84
2019-03-02T01:05:42.237Z,100523.66
2019-03-02T01:16:26.122Z,100518.83
2019-03-02T01:18:54.918Z,100514.84
2019-03-02T01:21:23.389Z,100519.75
2019-03-02T01:23:51.917Z,100510.74
2019-03-02T01:26:23.573Z,100518.54
2019-03-02T01:29:09.973Z,100518.11
2019-03-02T01:31:40.754Z,100513.66
2019-03-02T01:34:27.898Z,100512.36
2019-03-02T01:36:56.333Z,100503.48
2019-03-02T01:42:37.162Z,100478.95
2019-03-02T01:45:45.553Z,100474.67
2019-03-02T01:48:33.421Z,100472.93
2019-03-02T01:53:35.602Z,100469.50
2019-03-02T01:56:06.134Z,100468.63
2019-03-02T01:58:34.403Z,100466.38
2019-03-02T02:01:02.832Z,100467.01
2019-03-02T02:03:31.572Z,100463.92
2019-03-02T02:06:00.032Z,100463.45
2019-03-02T02:08:29.854Z,100468.33
2019-03-02T02:10:58.617Z,100470.45
2019-03-02T02:13:27.078Z,100471.84
2019-03-02T02:15:55.510Z,100481.06
2019-03-02T02:18:27.410Z,100474.54
2019-03-02T02:20:54.425Z,100472.37
2019-03-02T02:23:22.857Z,100472.02
2019-03-02T02:26:11.391Z,100470.08
2019-03-02T02:28:41.024Z,100469.09
2019-03-02T02:31:09.478Z,100465.28
2019-03-02T02:33:43.026Z,100469.54
2019-03-02T02:36:08.169Z,100473.42
2019-03-02T02:38:36.604Z,100470.38
2019-03-02T02:44:00.518Z,100457.70
2019-03-02T02:46:32.631Z,100457.30
2019-03-02T02:49:19.447Z,100454.73
2019-03-02T02:54:57.603Z,100450.30
2019-03-02T02:57:26.123Z,100444.98
2019-03-02T02:59:54.553Z,100442.38
2019-03-02T03:02:42.277Z,100439.61
2019-03-02T03:05:15.223Z,100439.05
2019-03-02T03:07:41.063Z,100429.26
2019-03-02T03:10:47.986Z,100429.81
2019-03-02T03:13:16.421Z,100435.75
2019-03-02T03:18:33.968Z,100429.66
2019-03-02T03:23:49.928Z,100424.14
2019-03-02T03:26:37.568Z,100427.31
2019-03-02T03:29:25.347Z,100430.33
2019-03-02T03:31:53.797Z,100423.64
2019-03-02T03:34:30.269Z,100428.55
2019-03-02T03:36:54.122Z,100428.34
2019-03-02T03:39:22.925Z,100433.30
2019-03-02T03:41:51.353Z,100431.98
2019-03-02T03:44:25.731Z,100431.55
2019-03-02T03:46:50.512Z,100436.44
2019-03-02T03:49:18.942Z,100431.70
2019-03-02T03:51:47.410Z,100429.42
2019-03-02T03:54:16.162Z,100427.16
2019-03-02T03:57:04.137Z,100428.53
2019-03-02T03:59:32.561Z,100423.23
2019-03-02T04:02:20.437Z,100429.80
2019-03-02T04:05:29.043Z,100430.75
2019-03-02T04:11:11.709Z,100429.85
2019-03-02T04:13:44.837Z,100436.04
2019-03-02T04:16:10.340Z,100427.73
2019-03-02T04:19:18.820Z,100429.07
2019-03-02T04:21:47.285Z,100426.44
2019-03-02T04:24:15.731Z,100423.73
2019-03-02T04:26:44.190Z,100421.09
2019-03-02T04:29:12.623Z,100417.10
2019-03-02T04:31:43.944Z,100418.90
2019-03-02T04:37:04.642Z,100430.03
2019-03-02T04:39:33.113Z,100427.32
2019-03-02T04:42:01.544Z,100416.91
2019-03-02T04:44:30.869Z,100416.47
2019-03-02T04:49:53.121Z,100416.37
2019-03-02T04:52:21.585Z,100415.07
2019-03-02T04:54:50.013Z,100398.83
2019-03-02T04:57:18.740Z,100401.02
2019-03-02T05:02:21.457Z,100416.37
2019-03-02T05:07:26.786Z,100404.45
2019-03-02T05:12:49.665Z,100396.11
2019-03-02T05:15:18.448Z,100391.27
2019-03-02T05:17:46.969Z,100391.72
2019-03-02T05:20:15.749Z,100383.77
2019-03-02T05:23:03.493Z,100389.98
2019-03-02T05:25:32.021Z,100382.02
2019-03-02T05:28:03.734Z,100386.81
2019-03-02T05:30:31.684Z,100383.37
2019-03-02T05:33:00.913Z,100379.37
2019-03-02T05:35:29.653Z,100379.77
2019-03-02T05:37:58.115Z,100381.62
2019-03-02T05:40:27.855Z,100378.58
2019-03-02T05:42:57.249Z,100375.91
2019-03-02T05:45:44.986Z,100372.41
2019-03-02T05:48:13.412Z,100370.59
2019-03-02T05:50:41.853Z,100375.04
2019-03-02T05:53:10.317Z,100371.45
2019-03-02T05:55:38.746Z,100363.06
2019-03-02T05:58:07.178Z,100362.53
2019-03-02T06:00:55.325Z,100366.48
2019-03-02T06:03:23.755Z,100364.76
2019-03-02T06:05:52.185Z,100366.50
2019-03-02T06:08:20.654Z,100361.20
2019-03-02T06:10:49.093Z,100362.97
2019-03-02T06:13:18.892Z,100363.42
2019-03-02T06:15:47.716Z,100361.57
2019-03-02T06:18:16.155Z,100367.38
2019-03-02T06:20:44.729Z,100363.37
2019-03-02T06:23:14.776Z,100366.94
2019-03-02T06:26:02.535Z,100369.53
2019-03-02T06:28:31.005Z,100363.81
2019-03-02T06:31:19.173Z,100362.36
2019-03-02T06:36:23.249Z,100364.95
2019-03-02T06:38:51.776Z,100364.95
2019-03-02T06:43:55.108Z,100362.86
2019-03-02T06:46:25.023Z,100357.02
2019-03-02T06:48:53.566Z,100350.72
2019-03-02T06:51:22.002Z,100355.30
2019-03-02T06:56:24.047Z,100353.53
2019-03-02T06:58:52.513Z,100357.91
2019-03-02T07:01:24.677Z,100356.60
2019-03-02T07:03:51.486Z,100363.64
2019-03-02T07:06:20.859Z,100348.16
2019-03-02T07:08:49.345Z,100346.00
2019-03-02T07:11:17.721Z,100345.55
2019-03-02T07:14:05.380Z,100350.27
2019-03-02T07:16:33.917Z,100346.30
2019-03-02T07:19:21.832Z,100350.72
2019-03-02T07:21:50.559Z,100353.37
2019-03-02T07:24:19.004Z,100350.65
2019-03-02T07:26:47.619Z,100348.42
2019-03-02T07:29:17.673Z,100347.58
2019-03-02T07:31:46.212Z,100345.66
2019-03-02T07:34:14.666Z,100352.47
2019-03-02T07:36:43.119Z,100345.97
2019-03-02T07:39:11.551Z,100339.13
2019-03-02T07:44:14.229Z,100344.03
2019-03-02T07:47:02.005Z,100341.74
2019-03-02T07:49:30.782Z,100338.77
2019-03-02T07:52:18.625Z,100347.55
2019-03-02T07:55:06.513Z,100347.45
2019-03-02T08:00:28.861Z,100352.81
2019-03-02T08:05:31.821Z,100349.20
2019-03-02T08:10:34.785Z,100347.64
2019-03-02T08:13:04.868Z,100346.83
2019-03-02T08:16:13.213Z,100342.37
2019-03-02T08:18:41.681Z,100347.16
2019-03-02T08:21:10.210Z,100343.48
2019-03-02T08:23:39.029Z,100333.27
2019-03-02T08:26:26.893Z,100336.19
2019-03-02T08:28:55.322Z,100338.83
2019-03-02T08:31:23.755Z,100337.12
2019-03-02T08:34:11.864Z,100337.89
2019-03-02T08:36:40.391Z,100340.34
2019-03-02T08:39:28.177Z,100343.52
2019-03-02T08:41:56.624Z,100340.49
2019-03-02T08:44:25.065Z,100339.96
2019-03-02T08:46:53.512Z,100340.70
2019-03-02T08:49:41.875Z,100337.39
2019-03-02T08:52:11.312Z,100334.67
2019-03-02T08:54:39.829Z,100327.66
2019-03-02T08:57:08.261Z,100335.72
2019-03-02T08:59:38.127Z,100327.41
2019-03-02T09:02:26.471Z,100333.20
2019-03-02T09:04:54.934Z,100338.08
2019-03-02T09:07:23.366Z,100332.96
2019-03-02T09:10:13.655Z,100336.66
2019-03-02T09:15:49.509Z,100340.34
2019-03-02T09:24:19.776Z,100339.38
2019-03-02T09:26:49.821Z,100333.09
2019-03-02T09:29:18.568Z,100332.95
2019-03-02T09:31:47.097Z,100329.13
2019-03-02T09:34:37.066Z,100329.29
2019-03-02T09:37:07.099Z,100335.27
2019-03-02T09:39:37.496Z,100332.58
2019-03-02T09:42:05.439Z,100327.92
2019-03-02T09:44:36.338Z,100333.34
2019-03-02T09:47:05.069Z,100328.37
2019-03-02T09:49:53.584Z,100326.78
2019-03-02T09:52:22.309Z,100320.74
2019-03-02T09:54:50.742Z,100324.35
2019-03-02T09:57:19.476Z,100329.02
2019-03-02T09:59:47.913Z,100324.81
2019-03-02T10:02:16.433Z,100324.66
2019-03-02T10:07:18.507Z,100328.70
2019-03-02T10:09:46.945Z,100323.44
2019-03-02T10:12:15.402Z,100319.46
2019-03-02T10:14:44.175Z,100319.21
2019-03-02T10:17:12.601Z,100318.20
2019-03-02T10:19:41.061Z,100319.62
2019-03-02T10:22:09.566Z,100323.02
2019-03-02T10:24:39.685Z,100318.84
2019-03-02T10:27:08.490Z,100321.41
2019-03-02T10:29:36.928Z,100317.61
2019-03-02T10:32:25.047Z,100313.61
2019-03-02T10:34:53.834Z,100315.48
2019-03-02T10:37:22.622Z,100309.31
2019-03-02T10:42:25.070Z,100304.44
2019-03-02T10:44:57.014Z,100301.13
2019-03-02T10:50:51.327Z,100298.48
2019-03-02T10:53:20.817Z,100294.30
2019-03-02T10:55:49.938Z,100297.76
2019-03-02T10:58:18.473Z,100296.06
2019-03-02T11:01:07.278Z,100289.37
2019-03-02T11:03:36.516Z,100297.73
2019-03-02T11:12:27.383Z,100295.90
2019-03-02T11:15:35.825Z,100292.36
2019-03-02T11:20:59.915Z,100287.60
2019-03-02T11:26:37.609Z,100282.60
2019-03-02T11:29:25.308Z,100279.21
2019-03-02T11:32:13.003Z,100283.92
2019-03-02T11:38:08.915Z,100274.94
2019-03-02T11:40:56.468Z,100251.02
2019-03-02T11:43:44.162Z,100250.05
2019-03-02T11:46:31.802Z,100247.44
2019-03-02T11:52:02.103Z,100251.85
2019-03-02T11:57:37.300Z,100246.27
2019-03-02T12:00:45.646Z,100249.11
2019-03-02T12:03:35.352Z,100246.80
2019-03-02T12:06:22.673Z,100235.73
2019-03-02T12:09:10.271Z,100238.84
2019-03-02T12:11:57.824Z,100236.59
2019-03-02T12:14:46.334Z,100232.78
2019-03-02T12:17:37.877Z,100220.05
2019-03-02T12:20:45.543Z,100221.14
2019-03-02T12:26:23.678Z,100221.47
2019-03-02T12:29:13.449Z,100214.78
2019-03-02T12:32:03.877Z,100204.45
2019-03-02T12:34:50.152Z,100204.41
2019-03-02T12:37:57.052Z,100207.11
2019-03-02T12:43:33.718Z,100190.27
2019-03-02T12:46:21.270Z,100197.10
2019-03-02T12:49:11.035Z,100195.57
2019-03-02T12:51:58.310Z,100195.11
2019-03-02T12:57:21.092Z,100184.19
2019-03-02T13:02:57.775Z,100170.97
2019-03-02T13:05:45.326Z,100164.78
2019-03-02T13:08:34.810Z,100169.06
2019-03-02T13:14:11.377Z,100161.04
2019-03-02T13:16:59.405Z,100159.85
2019-03-02T13:22:44.330Z,100152.45
2019-03-02T13:25:51.209Z,100156.57
2019-03-02T13:33:53.708Z,100146.88
2019-03-02T13:36:43.944Z,100148.92
2019-03-02T13:39:52.532Z,100155.19
2019-03-02T13:42:40.792Z,100145.85
2019-03-02T13:45:35.665Z,100145.92
2019-03-02T13:48:25.726Z,100148.78
2019-03-02T13:51:12.689Z,100146.25
2019-03-02T13:54:02.850Z,100140.66
2019-03-02T13:56:49.609Z,100145.92
2019-03-02T13:59:37.249Z,100151.72
2019-03-02T14:02:24.855Z,100144.30
2019-03-02T14:05:12.481Z,100141.65
2019-03-02T14:08:00.136Z,100138.07
2019-03-02T14:10:47.725Z,100138.53
2019-03-02T14:13:35.260Z,100135.80
2019-03-02T14:16:22.876Z,100131.56
2019-03-02T14:19:10.460Z,100135.91
2019-03-02T14:24:48.248Z,100134.43
2019-03-02T14:27:57.768Z,100133.25
2019-03-02T14:30:45.763Z,100132.23
2019-03-02T14:33:33.568Z,100134.52
2019-03-02T14:36:21.209Z,100124.03
2019-03-02T14:39:08.762Z,100123.42
2019-03-02T14:41:56.359Z,100120.89
2019-03-02T14:44:43.919Z,100132.98
2019-03-02T14:47:33.039Z,100129.03
2019-03-02T14:50:44.000Z,100130.18
2019-03-02T14:53:29.990Z,100128.39
2019-03-02T14:59:10.184Z,100121.79
2019-03-02T15:01:56.215Z,100120.31
2019-03-02T15:04:44.096Z,100110.16
2019-03-02T15:07:31.652Z,100105.91
2019-03-02T15:10:22.821Z,100102.22
2019-03-02T15:13:08.506Z,100093.11
2019-03-02T15:18:31.331Z,100110.12
2019-03-02T15:21:19.141Z,100100.59
2019-03-02T15:24:07.113Z,100100.48
2019-03-02T15:26:54.957Z,100095.35
2019-03-02T15:29:46.406Z,100099.75
2019-03-02T15:32:31.941Z,100096.38
2019-03-02T15:35:19.559Z,100095.95
2019-03-02T15:38:07.380Z,100098.17
2019-03-02T15:41:14.465Z,100098.59
2019-03-02T15:44:21.442Z,100093.47
2019-03-02T15:47:10.067Z,100082.53
2019-03-02T15:53:06.813Z,100094.59
2019-03-02T15:55:54.368Z,100099.61
2019-03-02T15:58:42.114Z,100091.32
2019-03-02T16:01:29.757Z,100085.41
2019-03-02T16:04:39.116Z,100084.27
2019-03-02T16:07:27.587Z,100078.45
2019-03-02T16:10:15.226Z,100088.88
2019-03-02T16:13:03.037Z,100087.96
2019-03-02T16:15:50.616Z,100079.22
2019-03-02T16:18:57.487Z,100064.29
2019-03-02T16:21:45.564Z,100051.09
2019-03-02T16:24:33.349Z,100072.22
2019-03-02T16:27:40.536Z,100071.02
2019-03-02T16:30:49.148Z,100077.84
2019-03-02T16:33:36.802Z,100071.36
2019-03-02T16:36:45.141Z,100078.14
2019-03-02T16:39:53.511Z,100076.59
2019-03-02T16:45:51.135Z,100099.73
2019-03-02T16:49:00.982Z,100102.45
2019-03-02T16:54:44.898Z,100118.64
2019-03-02T16:57:34.618Z,100122.55
2019-03-02T17:00:22.277Z,100135.97
2019-03-02T17:03:09.828Z,100140.17
2019-03-02T17:05:57.478Z,100143.20
2019-03-02T17:08:45.029Z,100148.69
2019-03-02T17:11:53.393Z,100152.11
2019-03-02T17:14:42.022Z,100150.88
2019-03-02T17:17:51.190Z,100148.52
2019-03-02T17:20:42.800Z,100150.45
2019-03-02T17:23:28.147Z,100161.87
2019-03-02T17:26:15.949Z,100164.17
2019-03-02T17:29:03.649Z,100155.87
2019-03-02T17:32:14.041Z,100159.30
2019-03-02T17:34:59.838Z,100165.25
2019-03-02T17:37:47.406Z,100165.35
2019-03-02T17:40:55.864Z,100167.73
2019-03-02T17:46:52.190Z,100163.30
2019-03-02T17:52:28.995Z,100159.16
2019-03-02T17:55:17.373Z,100171.54
2019-03-02T18:01:01.206Z,100168.11
2019-03-02T18:06:59.334Z,100176.16
2019-03-02T18:09:46.701Z,100179.05
2019-03-02T18:12:34.538Z,100181.77
2019-03-02T18:15:41.682Z,100186.72
2019-03-02T18:18:31.882Z,100194.70
2019-03-02T18:29:16.061Z,100182.39
2019-03-02T18:34:38.342Z,100196.67
2019-03-02T18:39:41.148Z,100191.53
2019-03-02T18:42:30.745Z,100196.91
2019-03-02T18:45:02.413Z,100197.36
2019-03-02T18:47:30.089Z,100195.69
2019-03-02T18:50:19.066Z,100196.15
2019-03-02T18:55:36.608Z,100182.80
2019-03-02T18:58:45.063Z,100188.98
2019-03-02T19:06:26.821Z,100200.78
2019-03-02T19:08:54.366Z,100200.74
2019-03-02T19:11:23.933Z,100198.59
2019-03-02T19:13:52.361Z,100193.23
2019-03-02T19:16:20.821Z,100188.27
2019-03-02T19:18:49.323Z,100180.09
2019-03-02T19:21:37.404Z,100192.16
2019-03-02T19:24:46.028Z,100180.76
2019-03-02T19:27:14.596Z,100175.65
2019-03-02T19:32:50.029Z,100173.47
2019-03-02T19:35:38.119Z,100172.19
2019-03-02T19:38:25.780Z,100169.02
2019-03-02T19:44:02.158Z,100183.52
2019-03-02T19:46:49.808Z,100187.55
2019-03-02T19:49:38.540Z,100188.94
2019-03-02T19:52:26.321Z,100189.92
2019-03-02T19:54:55.162Z,100190.21
2019-03-02T19:57:42.851Z,100184.34
2019-03-02T20:00:51.240Z,100185.46
2019-03-02T20:03:39.171Z,100192.06
2019-03-02T20:09:01.070Z,100189.30
2019-03-02T20:11:29.658Z,100197.89
2019-03-02T20:13:58.120Z,100191.70
2019-03-02T20:16:26.646Z,100185.46
2019-03-02T20:21:43.184Z,100186.13
2019-03-02T20:24:30.996Z,100185.93
2019-03-02T20:32:40.160Z,100191.80
2019-03-02T20:35:48.593Z,100194.29
2019-03-02T20:38:17.490Z,100198.70
2019-03-02T20:40:45.959Z,100187.30
2019-03-02T20:43:16.485Z,100197.31
2019-03-02T20:49:12.628Z,100200.64
2019-03-02T20:52:00.816Z,100205.69
2019-03-02T20:54:29.140Z,100198.13
2019-03-02T20:57:17.305Z,100211.83
2019-03-02T21:00:05.160Z,100212.20
